OMAMV LZIB-LZIB
Flight info
| Callsign | OMAMV |
|---|---|
| Flight time | 0h 16m |
| Altitude | 2000 |
| Route | |
| Aircraft |
Departure
| Time | 2026-05-04 19:17 |
|---|---|
| Airport | M. R. Štefánik Airport (LZIB) |
Arrival
| Time | 2026-05-04 19:34 |
|---|---|
| Airport | M. R. Štefánik Airport (LZIB) |
| Time | Latitude | Longitude | Altitude | Speed | Heading |
|---|---|---|---|---|---|
| 2026-05-04 18:55 | 48.16419 | 17.19860 | 439 ft | 0 kts | 107° |
| 2026-05-04 19:00 | 48.16418 | 17.19867 | 439 ft | 2 kts | 107° |
| 2026-05-04 19:00 | 48.16417 | 17.19873 | 434 ft | 0 kts | 107° |
| 2026-05-04 19:01 | 48.16416 | 17.19874 | 434 ft | 0 kts | 95° |
| 2026-05-04 19:01 | 48.16421 | 17.19880 | 436 ft | 1 kts | 335° |
| 2026-05-04 19:01 | 48.16422 | 17.19879 | 436 ft | 0 kts | 325° |
| 2026-05-04 19:02 | 48.16424 | 17.19875 | 436 ft | 2 kts | 288° |
| 2026-05-04 19:02 | 48.16414 | 17.19860 | 439 ft | 3 kts | 191° |
| 2026-05-04 19:02 | 48.16384 | 17.19873 | 437 ft | 6 kts | 152° |
| 2026-05-04 19:02 | 48.16381 | 17.19936 | 439 ft | 8 kts | 63° |
| 2026-05-04 19:03 | 48.16423 | 17.20002 | 439 ft | 10 kts | 40° |
| 2026-05-04 19:03 | 48.16483 | 17.20077 | 439 ft | 13 kts | 38° |
| 2026-05-04 19:03 | 48.16559 | 17.20161 | 434 ft | 14 kts | 40° |
| 2026-05-04 19:03 | 48.16633 | 17.20269 | 438 ft | 15 kts | 40° |
| 2026-05-04 19:04 | 48.16717 | 17.20378 | 438 ft | 17 kts | 40° |
| 2026-05-04 19:04 | 48.16796 | 17.20491 | 431 ft | 13 kts | 47° |
| 2026-05-04 19:04 | 48.16843 | 17.20566 | 427 ft | 8 kts | 47° |
| 2026-05-04 19:04 | 48.16886 | 17.20635 | 438 ft | 11 kts | 47° |
| 2026-05-04 19:05 | 48.16932 | 17.20707 | 428 ft | 7 kts | 47° |
| 2026-05-04 19:05 | 48.16962 | 17.20754 | 437 ft | 8 kts | 46° |
| 2026-05-04 19:05 | 48.17005 | 17.20821 | 437 ft | 9 kts | 38° |
| 2026-05-04 19:05 | 48.17043 | 17.20833 | 437 ft | 3 kts | 349° |
| 2026-05-04 19:06 | 48.17076 | 17.20800 | 437 ft | 8 kts | 318° |
| 2026-05-04 19:06 | 48.17105 | 17.20757 | 437 ft | 10 kts | 313° |
| 2026-05-04 19:06 | 48.17151 | 17.20683 | 437 ft | 8 kts | 314° |
| 2026-05-04 19:06 | 48.17183 | 17.20635 | 437 ft | 8 kts | 314° |
| 2026-05-04 19:07 | 48.17228 | 17.20564 | 431 ft | 11 kts | 314° |
| 2026-05-04 19:07 | 48.17279 | 17.20487 | 437 ft | 8 kts | 315° |
| 2026-05-04 19:07 | 48.17302 | 17.20453 | 437 ft | 1 kts | 315° |
| 2026-05-04 19:07 | 48.17305 | 17.20447 | 430 ft | 2 kts | 314° |
| 2026-05-04 19:08 | 48.17321 | 17.20423 | 437 ft | 5 kts | 314° |
| 2026-05-04 19:08 | 48.17347 | 17.20383 | 431 ft | 4 kts | 314° |
| 2026-05-04 19:08 | 48.17351 | 17.20376 | 431 ft | 1 kts | 314° |
| 2026-05-04 19:08 | 48.17364 | 17.20356 | 437 ft | 4 kts | 315° |
| 2026-05-04 19:09 | 48.17397 | 17.20319 | 437 ft | 7 kts | 335° |
| 2026-05-04 19:09 | 48.17429 | 17.20304 | 437 ft | 4 kts | 350° |
| 2026-05-04 19:09 | 48.17449 | 17.20301 | 437 ft | 0 kts | 359° |
| 2026-05-04 19:09 | 48.17465 | 17.20306 | 437 ft | 4 kts | 16° |
| 2026-05-04 19:10 | 48.17475 | 17.20310 | 437 ft | 0 kts | 15° |
| 2026-05-04 19:13 | 48.17476 | 17.20311 | 437 ft | 0 kts | 15° |
| 2026-05-04 19:14 | 48.17488 | 17.20317 | 437 ft | 5 kts | 19° |
| 2026-05-04 19:14 | 48.17525 | 17.20352 | 431 ft | 5 kts | 41° |
| 2026-05-04 19:14 | 48.17545 | 17.20381 | 436 ft | 0 kts | 95° |
| 2026-05-04 19:14 | 48.17547 | 17.20402 | 433 ft | 6 kts | 76° |
| 2026-05-04 19:15 | 48.17529 | 17.20455 | 436 ft | 6 kts | 130° |
| 2026-05-04 19:15 | 48.17517 | 17.20474 | 436 ft | 0 kts | 133° |
| 2026-05-04 19:16 | 48.17481 | 17.20525 | 437 ft | 36 kts | 137° |
| 2026-05-04 19:16 | 48.17204 | 17.20860 | 624 ft | 56 kts | 142° |
| 2026-05-04 19:17 | 48.16906 | 17.21334 | 787 ft | 67 kts | 134° |
| 2026-05-04 19:17 | 48.16579 | 17.21844 | 961 ft | 68 kts | 133° |
| 2026-05-04 19:17 | 48.16382 | 17.22432 | 1140 ft | 62 kts | 101° |
| 2026-05-04 19:17 | 48.16462 | 17.23104 | 1201 ft | 68 kts | 71° |
| 2026-05-04 19:18 | 48.16748 | 17.23722 | 1222 ft | 77 kts | 45° |
| 2026-05-04 19:18 | 48.17053 | 17.24206 | 1210 ft | 79 kts | 45° |
| 2026-05-04 19:18 | 48.17418 | 17.24797 | 1207 ft | 79 kts | 47° |
| 2026-05-04 19:18 | 48.17751 | 17.25336 | 1221 ft | 77 kts | 49° |
| 2026-05-04 19:19 | 48.18104 | 17.25940 | 1200 ft | 79 kts | 49° |
| 2026-05-04 19:19 | 48.18185 | 17.26616 | 1223 ft | 77 kts | 112° |
| 2026-05-04 19:19 | 48.17760 | 17.27032 | 1177 ft | 79 kts | 188° |
| 2026-05-04 19:19 | 48.17417 | 17.26464 | 1143 ft | 79 kts | 261° |
| 2026-05-04 19:20 | 48.17573 | 17.25813 | 1174 ft | 73 kts | 319° |
| 2026-05-04 19:20 | 48.18005 | 17.25859 | 1153 ft | 75 kts | 57° |
| 2026-05-04 19:20 | 48.17891 | 17.26502 | 1156 ft | 78 kts | 154° |
| 2026-05-04 19:20 | 48.17413 | 17.26343 | 1122 ft | 74 kts | 233° |
| 2026-05-04 19:21 | 48.17416 | 17.25648 | 1105 ft | 73 kts | 303° |
| 2026-05-04 19:21 | 48.17848 | 17.25326 | 1116 ft | 71 kts | 359° |
| 2026-05-04 19:21 | 48.18315 | 17.25593 | 1070 ft | 79 kts | 40° |
| 2026-05-04 19:21 | 48.18692 | 17.26165 | 1072 ft | 76 kts | 36° |
| 2026-05-04 19:22 | 48.19145 | 17.26430 | 1064 ft | 70 kts | 359° |
| 2026-05-04 19:22 | 48.19570 | 17.26142 | 962 ft | 71 kts | 312° |
| 2026-05-04 19:22 | 48.19658 | 17.25504 | 860 ft | 72 kts | 264° |
| 2026-05-04 19:22 | 48.19492 | 17.24844 | 791 ft | 66 kts | 222° |
| 2026-05-04 19:23 | 48.19151 | 17.24386 | 772 ft | 66 kts | 222° |
| 2026-05-04 19:23 | 48.18822 | 17.23924 | 759 ft | 64 kts | 225° |
| 2026-05-04 19:23 | 48.18485 | 17.23445 | 704 ft | 69 kts | 227° |
| 2026-05-04 19:23 | 48.18146 | 17.22930 | 631 ft | 71 kts | 224° |
| 2026-05-04 19:24 | 48.17773 | 17.22393 | 504 ft | 77 kts | 224° |
| 2026-05-04 19:24 | 48.17402 | 17.21864 | 449 ft | 69 kts | 225° |
| 2026-05-04 19:24 | 48.17090 | 17.21402 | 431 ft | 58 kts | 227° |
| 2026-05-04 19:24 | 48.16754 | 17.20871 | 514 ft | 78 kts | 223° |
| 2026-05-04 19:25 | 48.16351 | 17.20355 | 642 ft | 85 kts | 221° |
| 2026-05-04 19:25 | 48.15918 | 17.19778 | 793 ft | 83 kts | 223° |
| 2026-05-04 19:25 | 48.15687 | 17.19074 | 989 ft | 75 kts | 272° |
| 2026-05-04 19:25 | 48.15853 | 17.18365 | 1121 ft | 72 kts | 304° |
| 2026-05-04 19:26 | 48.16253 | 17.17882 | 1158 ft | 81 kts | 339° |
| 2026-05-04 19:26 | 48.16742 | 17.18045 | 1144 ft | 82 kts | 38° |
| 2026-05-04 19:26 | 48.17141 | 17.18632 | 1149 ft | 79 kts | 44° |
| 2026-05-04 19:26 | 48.17517 | 17.19227 | 1152 ft | 78 kts | 44° |
| 2026-05-04 19:27 | 48.17903 | 17.19782 | 1149 ft | 76 kts | 44° |
| 2026-05-04 19:27 | 48.18237 | 17.20311 | 1214 ft | 64 kts | 45° |
| 2026-05-04 19:27 | 48.18556 | 17.20841 | 1196 ft | 71 kts | 48° |
| 2026-05-04 19:27 | 48.18911 | 17.21377 | 1159 ft | 76 kts | 39° |
| 2026-05-04 19:28 | 48.19247 | 17.21960 | 1120 ft | 72 kts | 61° |
| 2026-05-04 19:28 | 48.19332 | 17.22641 | 1011 ft | 64 kts | 105° |
| 2026-05-04 19:28 | 48.19089 | 17.23206 | 872 ft | 65 kts | 132° |
| 2026-05-04 19:28 | 48.18702 | 17.23481 | 726 ft | 65 kts | 185° |
| 2026-05-04 19:29 | 48.18315 | 17.23199 | 595 ft | 60 kts | 226° |
| 2026-05-04 19:29 | 48.18026 | 17.22770 | 504 ft | 59 kts | 228° |
| 2026-05-04 19:29 | 48.17743 | 17.22350 | 442 ft | 53 kts | 221° |
| 2026-05-04 19:29 | 48.17491 | 17.21991 | 428 ft | 58 kts | 226° |
| 2026-05-04 19:30 | 48.17177 | 17.21519 | 530 ft | 67 kts | 227° |
| 2026-05-04 19:30 | 48.16847 | 17.21057 | 620 ft | 63 kts | 221° |
| 2026-05-04 19:30 | 48.16525 | 17.20592 | 649 ft | 66 kts | 219° |
| 2026-05-04 19:30 | 48.16182 | 17.20163 | 687 ft | 62 kts | 227° |
| 2026-05-04 19:31 | 48.16133 | 17.19572 | 788 ft | 60 kts | 292° |
| 2026-05-04 19:31 | 48.16386 | 17.19052 | 869 ft | 65 kts | 317° |
| 2026-05-04 19:31 | 48.16766 | 17.18707 | 979 ft | 66 kts | 2° |
| 2026-05-04 19:31 | 48.17147 | 17.19067 | 1072 ft | 69 kts | 42° |
| 2026-05-04 19:32 | 48.17500 | 17.19602 | 1140 ft | 76 kts | 44° |
| 2026-05-04 19:32 | 48.17846 | 17.20180 | 1249 ft | 73 kts | 51° |
| 2026-05-04 19:32 | 48.18191 | 17.20784 | 1274 ft | 83 kts | 47° |
| 2026-05-04 19:32 | 48.18551 | 17.21377 | 1302 ft | 73 kts | 50° |
| 2026-05-04 19:33 | 48.18848 | 17.21950 | 1293 ft | 68 kts | 68° |
| 2026-05-04 19:33 | 48.18815 | 17.22684 | 1098 ft | 73 kts | 122° |
| 2026-05-04 19:33 | 48.18364 | 17.23011 | 829 ft | 76 kts | 193° |
| 2026-05-04 19:33 | 48.17900 | 17.22586 | 540 ft | 79 kts | 221° |
| 2026-05-04 19:34 | 48.17569 | 17.22098 | 457 ft | 52 kts | 224° |
| 2026-05-04 19:34 | 48.17324 | 17.21736 | 440 ft | 48 kts | 225° |
| 2026-05-04 19:34 | 48.17083 | 17.21393 | 437 ft | 48 kts | 229° |
| 2026-05-04 19:34 | 48.16880 | 17.21069 | 436 ft | 34 kts | 225° |
| 2026-05-04 19:35 | 48.16736 | 17.20862 | 438 ft | 22 kts | 226° |
| 2026-05-04 19:35 | 48.16649 | 17.20726 | 433 ft | 16 kts | 226° |
| 2026-05-04 19:35 | 48.16589 | 17.20625 | 439 ft | 9 kts | 249° |
| 2026-05-04 19:35 | 48.16590 | 17.20580 | 439 ft | 0 kts | 296° |
| 2026-05-04 19:36 | 48.16598 | 17.20561 | 439 ft | 6 kts | 301° |
| 2026-05-04 19:36 | 48.16632 | 17.20502 | 439 ft | 9 kts | 313° |
| 2026-05-04 19:37 | 48.16674 | 17.20420 | 438 ft | 11 kts | 285° |
| 2026-05-04 19:37 | 48.16654 | 17.20312 | 438 ft | 12 kts | 231° |
| 2026-05-04 19:37 | 48.16599 | 17.20216 | 439 ft | 13 kts | 229° |
| 2026-05-04 19:37 | 48.16529 | 17.20133 | 439 ft | 14 kts | 218° |
| 2026-05-04 19:38 | 48.16450 | 17.20045 | 433 ft | 15 kts | 215° |
| 2026-05-04 19:38 | 48.16396 | 17.19924 | 431 ft | 14 kts | 257° |
| 2026-05-04 19:38 | 48.16423 | 17.19861 | 439 ft | 4 kts | 342° |
| 2026-05-04 19:38 | 48.16429 | 17.19858 | 439 ft | 0 kts | 344° |